sensor_id;sensor_type;location;lat;lon;timestamp;pressure;altitude;pressure_sealevel;temperature;humidity
34297;BME280;20564;42.902;25.336;2023-04-08T00:00:09;97424.00;;;5.04;87.32
34297;BME280;20564;42.902;25.336;2023-04-08T00:02:42;97420.47;;;5.05;87.57
34297;BME280;20564;42.902;25.336;2023-04-08T00:05:35;97419.41;;;5.07;87.75
34297;BME280;20564;42.902;25.336;2023-04-08T00:08:04;97423.41;;;5.13;87.08
34297;BME280;20564;42.902;25.336;2023-04-08T00:10:33;97415.28;;;5.18;87.98
34297;BME280;20564;42.902;25.336;2023-04-08T00:13:06;97418.19;;;5.26;87.58
34297;BME280;20564;42.902;25.336;2023-04-08T00:15:40;97412.34;;;5.22;87.70
34297;BME280;20564;42.902;25.336;2023-04-08T00:18:08;97404.81;;;5.18;86.37
34297;BME280;20564;42.902;25.336;2023-04-08T00:20:41;97400.63;;;5.15;85.80
34297;BME280;20564;42.902;25.336;2023-04-08T00:23:09;97404.41;;;5.11;86.00
34297;BME280;20564;42.902;25.336;2023-04-08T00:26:02;97404.81;;;5.18;86.23
34297;BME280;20564;42.902;25.336;2023-04-08T00:28:29;97399.72;;;5.16;87.08
34297;BME280;20564;42.902;25.336;2023-04-08T00:31:04;97404.44;;;5.24;86.93
34297;BME280;20564;42.902;25.336;2023-04-08T00:33:49;97393.56;;;5.17;86.24
34297;BME280;20564;42.902;25.336;2023-04-08T00:36:21;97396.06;;;5.19;85.71
34297;BME280;20564;42.902;25.336;2023-04-08T00:39:07;97399.41;;;5.21;86.67
34297;BME280;20564;42.902;25.336;2023-04-08T00:41:37;97402.78;;;5.23;86.36
34297;BME280;20564;42.902;25.336;2023-04-08T00:44:14;97401.50;;;5.28;86.75
34297;BME280;20564;42.902;25.336;2023-04-08T00:47:05;97397.94;;;5.29;85.99
34297;BME280;20564;42.902;25.336;2023-04-08T00:50:00;97386.59;;;5.30;86.24
34297;BME280;20564;42.902;25.336;2023-04-08T00:53:02;97386.47;;;5.32;86.72
34297;BME280;20564;42.902;25.336;2023-04-08T00:55:51;97389.84;;;5.34;86.00
34297;BME280;20564;42.902;25.336;2023-04-08T00:58:24;97392.22;;;5.37;85.02
34297;BME280;20564;42.902;25.336;2023-04-08T01:06:49;97381.25;;;5.32;85.37
34297;BME280;20564;42.902;25.336;2023-04-08T01:09:24;97367.59;;;5.28;86.01
34297;BME280;20564;42.902;25.336;2023-04-08T01:12:11;97374.59;;;5.28;85.90
34297;BME280;20564;42.902;25.336;2023-04-08T01:14:51;97379.81;;;5.28;84.80
34297;BME280;20564;42.902;25.336;2023-04-08T01:17:30;97380.00;;;5.25;85.10
34297;BME280;20564;42.902;25.336;2023-04-08T01:20:00;97387.13;;;5.23;86.76
34297;BME280;20564;42.902;25.336;2023-04-08T01:26:21;97382.72;;;5.23;84.59
34297;BME280;20564;42.902;25.336;2023-04-08T01:28:57;97378.75;;;5.18;85.47
34297;BME280;20564;42.902;25.336;2023-04-08T01:31:58;97386.06;;;5.25;85.69
34297;BME280;20564;42.902;25.336;2023-04-08T01:34:41;97387.19;;;5.21;85.42
34297;BME280;20564;42.902;25.336;2023-04-08T01:37:14;97372.06;;;5.14;86.07
34297;BME280;20564;42.902;25.336;2023-04-08T01:39:57;97376.31;;;5.15;86.29
34297;BME280;20564;42.902;25.336;2023-04-08T01:42:35;97381.53;;;5.15;87.03
34297;BME280;20564;42.902;25.336;2023-04-08T01:45:07;97391.06;;;5.16;86.87
34297;BME280;20564;42.902;25.336;2023-04-08T01:47:48;97393.75;;;5.14;86.90
34297;BME280;20564;42.902;25.336;2023-04-08T01:50:16;97394.31;;;5.19;86.72
34297;BME280;20564;42.902;25.336;2023-04-08T01:52:59;97399.22;;;5.24;87.75
34297;BME280;20564;42.902;25.336;2023-04-08T01:55:37;97399.22;;;5.24;86.47
34297;BME280;20564;42.902;25.336;2023-04-08T01:58:26;97394.19;;;5.21;86.80
34297;BME280;20564;42.902;25.336;2023-04-08T02:01:27;97403.28;;;5.28;87.51
34297;BME280;20564;42.902;25.336;2023-04-08T02:03:59;97399.94;;;5.26;87.40
34297;BME280;20564;42.902;25.336;2023-04-08T02:06:44;97396.28;;;5.28;86.61
34297;BME280;20564;42.902;25.336;2023-04-08T02:09:35;97400.47;;;5.31;87.19
34297;BME280;20564;42.902;25.336;2023-04-08T02:12:29;97398.78;;;5.30;87.73
34297;BME280;20564;42.902;25.336;2023-04-08T02:15:04;97395.25;;;5.31;88.41
34297;BME280;20564;42.902;25.336;2023-04-08T02:18:08;97399.72;;;5.29;88.46
34297;BME280;20564;42.902;25.336;2023-04-08T02:23:41;97397.25;;;5.27;88.86
34297;BME280;20564;42.902;25.336;2023-04-08T02:26:20;97401.41;;;5.30;88.10
34297;BME280;20564;42.902;25.336;2023-04-08T02:28:49;97405.91;;;5.28;88.21
34297;BME280;20564;42.902;25.336;2023-04-08T02:31:33;97404.25;;;5.27;88.42
34297;BME280;20564;42.902;25.336;2023-04-08T02:44:10;97397.56;;;5.23;89.92
34297;BME280;20564;42.902;25.336;2023-04-08T02:50:18;97405.66;;;5.18;90.49
34297;BME280;20564;42.902;25.336;2023-04-08T02:52:46;97396.91;;;5.19;90.09
34297;BME280;20564;42.902;25.336;2023-04-08T02:55:14;97407.75;;;5.26;89.63
34297;BME280;20564;42.902;25.336;2023-04-08T02:57:46;97404.00;;;5.30;90.41
34297;BME280;20564;42.902;25.336;2023-04-08T03:00:19;97395.88;;;5.35;89.54
34297;BME280;20564;42.902;25.336;2023-04-08T03:02:59;97407.75;;;5.26;89.66
34297;BME280;20564;42.902;25.336;2023-04-08T03:05:45;97412.97;;;5.26;90.35
34297;BME280;20564;42.902;25.336;2023-04-08T03:08:52;97409.66;;;5.24;89.74
34297;BME280;20564;42.902;25.336;2023-04-08T03:11:51;97414.88;;;5.24;90.70
34297;BME280;20564;42.902;25.336;2023-04-08T03:14:59;97416.94;;;5.19;91.29
34297;BME280;20564;42.902;25.336;2023-04-08T03:17:28;97421.81;;;5.11;91.66
34297;BME280;20564;42.902;25.336;2023-04-08T03:20:24;97426.31;;;5.08;91.22
34297;BME280;20564;42.902;25.336;2023-04-08T03:23:02;97424.44;;;5.11;91.90
34297;BME280;20564;42.902;25.336;2023-04-08T03:25:50;97428.94;;;5.21;90.77
34297;BME280;20564;42.902;25.336;2023-04-08T03:28:41;97425.91;;;5.15;92.07
34297;BME280;20564;42.902;25.336;2023-04-08T03:31:21;97434.34;;;5.05;91.36
34297;BME280;20564;42.902;25.336;2023-04-08T03:34:25;97425.25;;;5.11;91.68
34297;BME280;20564;42.902;25.336;2023-04-08T03:36:52;97433.00;;;5.13;92.53
34297;BME280;20564;42.902;25.336;2023-04-08T03:39:19;97436.19;;;5.03;92.88
34297;BME280;20564;42.902;25.336;2023-04-08T03:41:46;97449.06;;;5.06;92.39
34297;BME280;20564;42.902;25.336;2023-04-08T03:44:13;97445.69;;;5.04;92.40
34297;BME280;20564;42.902;25.336;2023-04-08T03:46:40;97451.53;;;5.08;93.28
34297;BME280;20564;42.902;25.336;2023-04-08T03:49:10;97452.31;;;5.10;92.77
34297;BME280;20564;42.902;25.336;2023-04-08T03:51:37;97450.13;;;5.17;91.86
34297;BME280;20564;42.902;25.336;2023-04-08T03:54:13;97449.06;;;5.06;91.60
34297;BME280;20564;42.902;25.336;2023-04-08T03:56:51;97443.63;;;5.10;91.52
34297;BME280;20564;42.902;25.336;2023-04-08T03:59:18;97452.19;;;5.12;92.15
34297;BME280;20564;42.902;25.336;2023-04-08T04:01:45;97448.66;;;5.13;92.37
34297;BME280;20564;42.902;25.336;2023-04-08T04:04:13;97451.16;;;5.14;92.97
34297;BME280;20564;42.902;25.336;2023-04-08T04:06:40;97448.84;;;5.10;91.89
34297;BME280;20564;42.902;25.336;2023-04-08T04:09:07;97456.75;;;5.08;92.99
34297;BME280;20564;42.902;25.336;2023-04-08T04:11:34;97457.06;;;5.03;94.33
34297;BME280;20564;42.902;25.336;2023-04-08T04:14:01;97459.50;;;5.06;93.39
34297;BME280;20564;42.902;25.336;2023-04-08T04:16:28;97461.41;;;5.17;93.67
34297;BME280;20564;42.902;25.336;2023-04-08T04:18:58;97454.53;;;5.16;93.42
34297;BME280;20564;42.902;25.336;2023-04-08T04:21:25;97457.00;;;5.18;93.79
34297;BME280;20564;42.902;25.336;2023-04-08T04:23:55;97460.56;;;5.17;93.70
34297;BME280;20564;42.902;25.336;2023-04-08T04:26:22;97459.81;;;5.15;93.93
34297;BME280;20564;42.902;25.336;2023-04-08T04:28:51;97456.94;;;5.19;94.16
34297;BME280;20564;42.902;25.336;2023-04-08T04:31:19;97454.72;;;5.13;94.47
34297;BME280;20564;42.902;25.336;2023-04-08T04:33:48;97464.31;;;5.13;94.97
34297;BME280;20564;42.902;25.336;2023-04-08T04:36:14;97466.31;;;5.22;93.79
34297;BME280;20564;42.902;25.336;2023-04-08T04:38:41;97458.91;;;5.16;94.13
34297;BME280;20564;42.902;25.336;2023-04-08T04:41:09;97457.00;;;5.18;95.01
34297;BME280;20564;42.902;25.336;2023-04-08T04:43:36;97447.31;;;5.20;94.07
34297;BME280;20564;42.902;25.336;2023-04-08T04:46:13;97453.25;;;5.22;94.59
34297;BME280;20564;42.902;25.336;2023-04-08T04:48:52;97444.28;;;5.26;94.12
34297;BME280;20564;42.902;25.336;2023-04-08T04:51:25;97446.19;;;5.24;94.64
34297;BME280;20564;42.902;25.336;2023-04-08T04:54:02;97457.00;;;5.18;94.85
34297;BME280;20564;42.902;25.336;2023-04-08T04:56:35;97453.47;;;5.19;94.54
34297;BME280;20564;42.902;25.336;2023-04-08T04:59:05;97461.50;;;5.16;94.02
34297;BME280;20564;42.902;25.336;2023-04-08T05:01:35;97448.03;;;5.22;93.94
34297;BME280;20564;42.902;25.336;2023-04-08T05:04:02;97459.94;;;5.26;93.81
34297;BME280;20564;42.902;25.336;2023-04-08T05:06:28;97465.16;;;5.26;94.31
34297;BME280;20564;42.902;25.336;2023-04-08T05:08:56;97471.84;;;5.30;93.36
34297;BME280;20564;42.902;25.336;2023-04-08T05:11:23;97470.63;;;5.36;94.38
34297;BME280;20564;42.902;25.336;2023-04-08T05:13:50;97471.06;;;5.42;93.69
34297;BME280;20564;42.902;25.336;2023-04-08T05:16:17;97469.09;;;5.46;93.27
34297;BME280;20564;42.902;25.336;2023-04-08T05:18:44;97462.41;;;5.54;92.11
34297;BME280;20564;42.902;25.336;2023-04-08T05:21:11;97460.34;;;5.60;92.11
34297;BME280;20564;42.902;25.336;2023-04-08T05:23:38;97467.13;;;5.62;91.55
34297;BME280;20564;42.902;25.336;2023-04-08T05:26:08;97461.63;;;5.67;91.83
34297;BME280;20564;42.902;25.336;2023-04-08T05:28:35;97457.75;;;5.72;90.08
34297;BME280;20564;42.902;25.336;2023-04-08T05:31:02;97469.44;;;5.79;90.59
34297;BME280;20564;42.902;25.336;2023-04-08T05:33:29;97475.31;;;5.83;88.47
34297;BME280;20564;42.902;25.336;2023-04-08T05:35:56;97470.72;;;5.87;87.58
34297;BME280;20564;42.902;25.336;2023-04-08T05:38:23;97471.78;;;5.97;86.98
34297;BME280;20564;42.902;25.336;2023-04-08T05:40:50;97471.47;;;6.01;85.71
34297;BME280;20564;42.902;25.336;2023-04-08T05:43:17;97470.94;;;6.09;86.24
34297;BME280;20564;42.902;25.336;2023-04-08T05:45:47;97470.09;;;6.09;85.50
34297;BME280;20564;42.902;25.336;2023-04-08T05:48:14;97471.97;;;6.07;85.37
34297;BME280;20564;42.902;25.336;2023-04-08T05:50:48;97469.56;;;6.16;85.95
34297;BME280;20564;42.902;25.336;2023-04-08T05:53:15;97468.63;;;6.30;85.10
34297;BME280;20564;42.902;25.336;2023-04-08T05:55:43;97469.34;;;6.32;83.70
34297;BME280;20564;42.902;25.336;2023-04-08T05:58:13;97458.16;;;6.30;84.80
34297;BME280;20564;42.902;25.336;2023-04-08T06:00:43;97462.97;;;6.36;83.72
34297;BME280;20564;42.902;25.336;2023-04-08T06:03:10;97469.22;;;6.46;83.73
34297;BME280;20564;42.902;25.336;2023-04-08T06:05:37;97467.13;;;6.51;81.73
34297;BME280;20564;42.902;25.336;2023-04-08T06:08:13;97471.28;;;6.54;82.39
34297;BME280;20564;42.902;25.336;2023-04-08T06:10:51;97471.47;;;6.64;83.44
34297;BME280;20564;42.902;25.336;2023-04-08T06:13:18;97473.22;;;6.76;83.45
34297;BME280;20564;42.902;25.336;2023-04-08T06:16:15;97470.75;;;6.98;83.15
34297;BME280;20564;42.902;25.336;2023-04-08T06:18:46;97471.13;;;7.05;81.21
34297;BME280;20564;42.902;25.336;2023-04-08T06:21:14;97466.06;;;7.15;81.47
34297;BME280;20564;42.902;25.336;2023-04-08T06:23:41;97477.06;;;7.31;80.39
34297;BME280;20564;42.902;25.336;2023-04-08T06:26:08;97474.13;;;7.36;78.28
34297;BME280;20564;42.902;25.336;2023-04-08T06:28:35;97474.16;;;7.47;78.67
34297;BME280;20564;42.902;25.336;2023-04-08T06:31:02;97471.94;;;7.54;78.85
34297;BME280;20564;42.902;25.336;2023-04-08T06:33:30;97472.66;;;7.67;78.70
34297;BME280;20564;42.902;25.336;2023-04-08T06:36:04;97472.00;;;7.76;77.87
34297;BME280;20564;42.902;25.336;2023-04-08T06:38:32;97484.38;;;7.85;76.87
34297;BME280;20564;42.902;25.336;2023-04-08T06:41:06;97481.75;;;7.85;76.51
34297;BME280;20564;42.902;25.336;2023-04-08T06:43:33;97481.91;;;7.95;75.00
34297;BME280;20564;42.902;25.336;2023-04-08T06:46:01;97477.03;;;8.02;75.13
34297;BME280;20564;42.902;25.336;2023-04-08T06:48:57;97480.97;;;8.07;75.63
34297;BME280;20564;42.902;25.336;2023-04-08T06:51:52;97479.91;;;8.21;73.61
34297;BME280;20564;42.902;25.336;2023-04-08T06:54:33;97480.38;;;8.26;72.72
34297;BME280;20564;42.902;25.336;2023-04-08T06:57:13;97480.16;;;8.29;72.65
34297;BME280;20564;42.902;25.336;2023-04-08T06:59:49;97477.19;;;8.34;73.50
34297;BME280;20564;42.902;25.336;2023-04-08T07:02:19;97478.13;;;8.33;73.84
34297;BME280;20564;42.902;25.336;2023-04-08T07:04:48;97485.41;;;8.52;72.78
34297;BME280;20564;42.902;25.336;2023-04-08T07:07:18;97480.28;;;8.61;71.84
34297;BME280;20564;42.902;25.336;2023-04-08T07:09:45;97484.13;;;8.57;71.73
34297;BME280;20564;42.902;25.336;2023-04-08T07:12:12;97486.13;;;8.65;72.67
34297;BME280;20564;42.902;25.336;2023-04-08T07:14:39;97491.94;;;8.91;70.81
34297;BME280;20564;42.902;25.336;2023-04-08T07:17:22;97480.13;;;8.97;70.62
34297;BME280;20564;42.902;25.336;2023-04-08T07:19:49;97478.06;;;9.11;69.69
34297;BME280;20564;42.902;25.336;2023-04-08T07:22:16;97485.06;;;9.22;68.54
34297;BME280;20564;42.902;25.336;2023-04-08T07:24:47;97476.66;;;9.28;69.80
34297;BME280;20564;42.902;25.336;2023-04-08T07:27:16;97486.63;;;9.46;69.14
34297;BME280;20564;42.902;25.336;2023-04-08T07:29:43;97490.53;;;9.62;67.93
34297;BME280;20564;42.902;25.336;2023-04-08T07:32:09;97486.41;;;9.49;67.49
34297;BME280;20564;42.902;25.336;2023-04-08T07:34:36;97480.69;;;9.64;68.37
34297;BME280;20564;42.902;25.336;2023-04-08T07:37:03;97480.91;;;9.73;67.61
34297;BME280;20564;42.902;25.336;2023-04-08T07:39:32;97485.56;;;9.90;67.87
34297;BME280;20564;42.902;25.336;2023-04-08T07:41:59;97474.41;;;10.19;68.21
34297;BME280;20564;42.902;25.336;2023-04-08T07:44:26;97477.72;;;10.42;66.27
34297;BME280;20564;42.902;25.336;2023-04-08T07:46:53;97481.16;;;10.73;65.40
34297;BME280;20564;42.902;25.336;2023-04-08T07:49:26;97475.19;;;10.71;63.73
34297;BME280;20564;42.902;25.336;2023-04-08T07:52:00;97480.09;;;10.85;63.66
34297;BME280;20564;42.902;25.336;2023-04-08T07:54:34;97465.81;;;10.88;64.24
34297;BME280;20564;42.902;25.336;2023-04-08T07:57:03;97465.28;;;11.03;64.90
34297;BME280;20564;42.902;25.336;2023-04-08T07:59:31;97466.56;;;11.28;63.69
34297;BME280;20564;42.902;25.336;2023-04-08T08:01:57;97462.81;;;11.41;63.44
34297;BME280;20564;42.902;25.336;2023-04-08T08:04:24;97460.47;;;11.57;61.59
34297;BME280;20564;42.902;25.336;2023-04-08T08:06:52;97463.78;;;11.78;63.19
34297;BME280;20564;42.902;25.336;2023-04-08T08:09:19;97458.06;;;12.12;61.44
34297;BME280;20564;42.902;25.336;2023-04-08T08:11:46;97453.69;;;12.30;60.04
34297;BME280;20564;42.902;25.336;2023-04-08T08:14:13;97456.56;;;12.47;59.13
34297;BME280;20564;42.902;25.336;2023-04-08T08:16:43;97453.50;;;12.42;58.83
34297;BME280;20564;42.902;25.336;2023-04-08T08:19:13;97452.28;;;12.64;57.93
34297;BME280;20564;42.902;25.336;2023-04-08T08:22:02;97455.56;;;12.75;57.02
34297;BME280;20564;42.902;25.336;2023-04-08T08:24:29;97450.53;;;12.82;56.71
34297;BME280;20564;42.902;25.336;2023-04-08T08:26:57;97444.59;;;12.98;55.21
34297;BME280;20564;42.902;25.336;2023-04-08T08:29:24;97451.72;;;13.15;55.55
34297;BME280;20564;42.902;25.336;2023-04-08T08:31:51;97451.13;;;13.21;54.26
34297;BME280;20564;42.902;25.336;2023-04-08T08:34:25;97454.16;;;13.26;54.11
34297;BME280;20564;42.902;25.336;2023-04-08T08:36:52;97467.16;;;13.38;52.92
34297;BME280;20564;42.902;25.336;2023-04-08T08:39:19;97456.66;;;13.28;55.07
34297;BME280;20564;42.902;25.336;2023-04-08T08:41:46;97445.09;;;13.47;53.39
34297;BME280;20564;42.902;25.336;2023-04-08T08:44:16;97451.13;;;13.75;53.87
34297;BME280;20564;42.902;25.336;2023-04-08T08:46:43;97449.41;;;13.92;52.40
34297;BME280;20564;42.902;25.336;2023-04-08T08:49:10;97450.75;;;13.96;51.76
34297;BME280;20564;42.902;25.336;2023-04-08T08:51:39;97457.31;;;13.84;50.97
34297;BME280;20564;42.902;25.336;2023-04-08T08:54:07;97448.63;;;13.56;52.42
34297;BME280;20564;42.902;25.336;2023-04-08T08:56:37;97449.47;;;13.56;53.20
34297;BME280;20564;42.902;25.336;2023-04-08T08:59:04;97449.63;;;13.72;51.90
34297;BME280;20564;42.902;25.336;2023-04-08T09:04:15;97448.06;;;14.14;50.37
34297;BME280;20564;42.902;25.336;2023-04-08T09:07:08;97446.31;;;13.96;49.14
34297;BME280;20564;42.902;25.336;2023-04-08T09:09:50;97441.34;;;13.93;49.53
34297;BME280;20564;42.902;25.336;2023-04-08T09:12:17;97446.22;;;14.06;49.60
34297;BME280;20564;42.902;25.336;2023-04-08T09:14:44;97445.59;;;14.12;50.48
34297;BME280;20564;42.902;25.336;2023-04-08T09:17:12;97450.38;;;14.43;49.51
34297;BME280;20564;42.902;25.336;2023-04-08T09:19:39;97448.50;;;14.53;48.27
34297;BME280;20564;42.902;25.336;2023-04-08T09:22:08;97445.47;;;14.48;49.24
34297;BME280;20564;42.902;25.336;2023-04-08T09:24:36;97456.03;;;14.74;49.22
34297;BME280;20564;42.902;25.336;2023-04-08T09:27:04;97452.91;;;14.79;47.00
34297;BME280;20564;42.902;25.336;2023-04-08T09:29:31;97454.19;;;14.66;46.77
34297;BME280;20564;42.902;25.336;2023-04-08T09:32:03;97457.44;;;14.52;48.18
34297;BME280;20564;42.902;25.336;2023-04-08T09:34:30;97460.09;;;14.52;49.61
34297;BME280;20564;42.902;25.336;2023-04-08T09:37:00;97462.38;;;14.29;48.60
34297;BME280;20564;42.902;25.336;2023-04-08T09:39:27;97465.53;;;14.51;48.83
34297;BME280;20564;42.902;25.336;2023-04-08T09:41:57;97458.94;;;14.37;48.03
34297;BME280;20564;42.902;25.336;2023-04-08T09:44:28;97466.28;;;14.43;48.63
34297;BME280;20564;42.902;25.336;2023-04-08T09:49:37;97458.00;;;14.38;47.88
34297;BME280;20564;42.902;25.336;2023-04-08T09:52:12;97449.50;;;14.26;48.57
34297;BME280;20564;42.902;25.336;2023-04-08T10:00:14;97455.53;;;14.18;48.12
34297;BME280;20564;42.902;25.336;2023-04-08T10:05:16;97455.53;;;14.70;47.10
34297;BME280;20564;42.902;25.336;2023-04-08T10:07:45;97449.28;;;14.88;45.93
34297;BME280;20564;42.902;25.336;2023-04-08T10:10:14;97447.69;;;15.03;44.08
34297;BME280;20564;42.902;25.336;2023-04-08T10:12:42;97449.00;;;15.07;45.96
34297;BME280;20564;42.902;25.336;2023-04-08T10:15:25;97440.75;;;15.10;44.31
34297;BME280;20564;42.902;25.336;2023-04-08T10:17:54;97446.28;;;14.83;45.39
34297;BME280;20564;42.902;25.336;2023-04-08T10:23:12;97447.31;;;14.98;45.14
34297;BME280;20564;42.902;25.336;2023-04-08T10:25:45;97437.72;;;15.05;45.02
34297;BME280;20564;42.902;25.336;2023-04-08T10:33:16;97429.69;;;15.56;42.62
34297;BME280;20564;42.902;25.336;2023-04-08T10:36:08;97419.56;;;15.51;43.59
34297;BME280;20564;42.902;25.336;2023-04-08T10:38:45;97416.25;;;15.82;44.13
34297;BME280;20564;42.902;25.336;2023-04-08T10:41:23;97418.72;;;16.00;43.34
34297;BME280;20564;42.902;25.336;2023-04-08T10:43:49;97413.59;;;16.06;42.92
34297;BME280;20564;42.902;25.336;2023-04-08T10:46:17;97412.97;;;15.80;42.88
34297;BME280;20564;42.902;25.336;2023-04-08T10:48:58;97419.91;;;16.05;43.59
34297;BME280;20564;42.902;25.336;2023-04-08T10:51:29;97410.88;;;16.23;41.72
34297;BME280;20564;42.902;25.336;2023-04-08T10:54:14;97417.97;;;16.38;42.60
34297;BME280;20564;42.902;25.336;2023-04-08T10:56:46;97413.16;;;16.42;42.13
34297;BME280;20564;42.902;25.336;2023-04-08T10:59:17;97406.53;;;16.30;41.44
34297;BME280;20564;42.902;25.336;2023-04-08T11:01:55;97406.94;;;16.10;41.93
34297;BME280;20564;42.902;25.336;2023-04-08T11:04:23;97412.91;;;16.04;41.84
34297;BME280;20564;42.902;25.336;2023-04-08T11:06:51;97415.59;;;15.96;41.61
34297;BME280;20564;42.902;25.336;2023-04-08T11:09:18;97405.47;;;16.00;42.47
34297;BME280;20564;42.902;25.336;2023-04-08T11:11:45;97408.41;;;16.05;42.70
34297;BME280;20564;42.902;25.336;2023-04-08T11:14:13;97401.28;;;16.13;41.26
34297;BME280;20564;42.902;25.336;2023-04-08T11:16:40;97406.09;;;16.10;41.72
34297;BME280;20564;42.902;25.336;2023-04-08T11:19:08;97391.31;;;16.15;41.09
34297;BME280;20564;42.902;25.336;2023-04-08T11:21:36;97388.81;;;16.22;39.94
34297;BME280;20564;42.902;25.336;2023-04-08T11:24:10;97386.25;;;16.37;42.04
34297;BME280;20564;42.902;25.336;2023-04-08T11:26:38;97380.75;;;16.47;41.03
34297;BME280;20564;42.902;25.336;2023-04-08T11:29:05;97386.06;;;16.47;41.10
34297;BME280;20564;42.902;25.336;2023-04-08T11:31:32;97390.22;;;16.49;41.18
34297;BME280;20564;42.902;25.336;2023-04-08T11:34:03;97392.34;;;16.54;40.51
34297;BME280;20564;42.902;25.336;2023-04-08T11:36:30;97386.06;;;16.47;40.74
34297;BME280;20564;42.902;25.336;2023-04-08T11:38:57;97383.44;;;16.38;40.36
34297;BME280;20564;42.902;25.336;2023-04-08T11:41:40;97388.31;;;16.19;43.41
34297;BME280;20564;42.902;25.336;2023-04-08T11:44:07;97386.41;;;15.88;45.15
34297;BME280;20564;42.902;25.336;2023-04-08T11:46:40;97393.97;;;14.85;49.47
34297;BME280;20564;42.902;25.336;2023-04-08T11:49:07;97400.66;;;13.94;51.19
34297;BME280;20564;42.902;25.336;2023-04-08T11:51:54;97393.78;;;13.58;53.16
34297;BME280;20564;42.902;25.336;2023-04-08T11:54:29;97405.69;;;13.36;54.94
34297;BME280;20564;42.902;25.336;2023-04-08T11:56:58;97404.22;;;12.88;56.32
34297;BME280;20564;42.902;25.336;2023-04-08T11:59:25;97414.13;;;12.58;57.59
34297;BME280;20564;42.902;25.336;2023-04-08T12:01:54;97420.34;;;12.29;58.62
34297;BME280;20564;42.902;25.336;2023-04-08T12:04:21;97426.28;;;12.04;59.04
34297;BME280;20564;42.902;25.336;2023-04-08T12:06:49;97431.59;;;11.75;61.64
34297;BME280;20564;42.902;25.336;2023-04-08T12:09:19;97426.59;;;11.72;62.87
34297;BME280;20564;42.902;25.336;2023-04-08T12:11:45;97430.06;;;11.63;62.47
34297;BME280;20564;42.902;25.336;2023-04-08T12:14:13;97425.94;;;11.50;65.88
34297;BME280;20564;42.902;25.336;2023-04-08T12:16:40;97423.88;;;11.34;69.93
34297;BME280;20564;42.902;25.336;2023-04-08T12:19:10;97436.19;;;11.24;72.04
34297;BME280;20564;42.902;25.336;2023-04-08T12:21:37;97426.75;;;11.02;70.24
34297;BME280;20564;42.902;25.336;2023-04-08T12:24:10;97426.75;;;10.83;74.15
34297;BME280;20564;42.902;25.336;2023-04-08T12:26:37;97427.84;;;10.80;75.66
34297;BME280;20564;42.902;25.336;2023-04-08T12:29:08;97429.50;;;10.91;75.78
34297;BME280;20564;42.902;25.336;2023-04-08T12:31:37;97425.38;;;11.08;75.96
34297;BME280;20564;42.902;25.336;2023-04-08T12:34:06;97411.53;;;11.16;77.70
34297;BME280;20564;42.902;25.336;2023-04-08T12:36:42;97407.38;;;11.23;74.32
34297;BME280;20564;42.902;25.336;2023-04-08T12:39:13;97412.63;;;11.32;77.13
34297;BME280;20564;42.902;25.336;2023-04-08T12:41:40;97410.81;;;11.43;73.21
34297;BME280;20564;42.902;25.336;2023-04-08T12:44:11;97408.19;;;11.43;71.58
34297;BME280;20564;42.902;25.336;2023-04-08T12:46:38;97410.25;;;11.29;72.92
34297;BME280;20564;42.902;25.336;2023-04-08T12:49:11;97411.22;;;11.28;73.94
34297;BME280;20564;42.902;25.336;2023-04-08T12:52:38;97400.13;;;11.25;72.37
34297;BME280;20564;42.902;25.336;2023-04-08T12:55:16;97399.03;;;11.18;69.71
34297;BME280;20564;42.902;25.336;2023-04-08T12:57:44;97402.09;;;11.13;70.45
34297;BME280;20564;42.902;25.336;2023-04-08T13:00:13;97406.38;;;11.14;70.79
34297;BME280;20564;42.902;25.336;2023-04-08T13:03:00;97407.22;;;11.24;70.53
34297;BME280;20564;42.902;25.336;2023-04-08T13:05:35;97400.97;;;11.25;69.01
34297;BME280;20564;42.902;25.336;2023-04-08T13:08:10;97404.31;;;11.27;68.03
34297;BME280;20564;42.902;25.336;2023-04-08T13:10:41;97398.22;;;11.27;66.16
34297;BME280;20564;42.902;25.336;2023-04-08T13:13:11;97402.06;;;11.32;65.73
34297;BME280;20564;42.902;25.336;2023-04-08T13:15:44;97400.53;;;11.40;65.92
34297;BME280;20564;42.902;25.336;2023-04-08T13:18:14;97402.63;;;11.46;67.34
34297;BME280;20564;42.902;25.336;2023-04-08T13:20:41;97405.00;;;11.49;65.49
34297;BME280;20564;42.902;25.336;2023-04-08T13:23:08;97398.19;;;11.46;67.11
34297;BME280;20564;42.902;25.336;2023-04-08T13:25:34;97395.72;;;11.45;64.64
34297;BME280;20564;42.902;25.336;2023-04-08T13:28:04;97397.34;;;11.46;65.82
34297;BME280;20564;42.902;25.336;2023-04-08T13:30:33;97393.91;;;11.45;65.16
34297;BME280;20564;42.902;25.336;2023-04-08T13:32:59;97397.22;;;11.47;66.96
34297;BME280;20564;42.902;25.336;2023-04-08T13:35:27;97398.19;;;11.56;68.65
34297;BME280;20564;42.902;25.336;2023-04-08T13:37:54;97398.69;;;11.69;65.69
34297;BME280;20564;42.902;25.336;2023-04-08T13:40:20;97405.50;;;11.81;66.23
34297;BME280;20564;42.902;25.336;2023-04-08T13:42:47;97402.16;;;11.89;64.28
34297;BME280;20564;42.902;25.336;2023-04-08T13:45:14;97403.09;;;11.98;65.78
34297;BME280;20564;42.902;25.336;2023-04-08T13:47:41;97401.16;;;12.00;63.94
34297;BME280;20564;42.902;25.336;2023-04-08T13:50:09;97393.47;;;12.06;65.18
34297;BME280;20564;42.902;25.336;2023-04-08T13:52:36;97391.91;;;12.23;65.37
34297;BME280;20564;42.902;25.336;2023-04-08T13:55:03;97391.16;;;12.31;65.54
34297;BME280;20564;42.902;25.336;2023-04-08T13:57:42;97396.00;;;12.36;64.95
34297;BME280;20564;42.902;25.336;2023-04-08T14:00:09;97385.75;;;12.33;64.65
34297;BME280;20564;42.902;25.336;2023-04-08T14:02:39;97390.84;;;12.44;64.37
34297;BME280;20564;42.902;25.336;2023-04-08T14:05:06;97386.78;;;12.49;62.98
34297;BME280;20564;42.902;25.336;2023-04-08T14:07:34;97392.06;;;12.49;62.77
34297;BME280;20564;42.902;25.336;2023-04-08T14:10:00;97390.72;;;12.36;60.23